sensor_id;sensor_type;location;lat;lon;timestamp;P1;durP1;ratioP1;P2;durP2;ratioP2
6823;SDS011;58633;49.470;11.004;2023-08-01T00:00:28;5.75;;;4.20;;
6823;SDS011;58633;49.470;11.004;2023-08-01T00:02:54;7.30;;;4.68;;
6823;SDS011;58633;49.470;11.004;2023-08-01T00:05:20;5.82;;;4.18;;
6823;SDS011;58633;49.470;11.004;2023-08-01T00:07:45;7.18;;;4.43;;
6823;SDS011;58633;49.470;11.004;2023-08-01T00:10:11;8.40;;;4.72;;
6823;SDS011;58633;49.470;11.004;2023-08-01T00:12:36;6.85;;;4.20;;
6823;SDS011;58633;49.470;11.004;2023-08-01T00:15:02;5.15;;;3.83;;
6823;SDS011;58633;49.470;11.004;2023-08-01T00:17:28;8.68;;;4.30;;
6823;SDS011;58633;49.470;11.004;2023-08-01T00:19:54;4.95;;;3.70;;
6823;SDS011;58633;49.470;11.004;2023-08-01T00:22:20;7.07;;;4.25;;
6823;SDS011;58633;49.470;11.004;2023-08-01T00:24:46;7.10;;;3.85;;
6823;SDS011;58633;49.470;11.004;2023-08-01T00:27:14;6.15;;;4.45;;
6823;SDS011;58633;49.470;11.004;2023-08-01T00:29:40;6.05;;;4.15;;
6823;SDS011;58633;49.470;11.004;2023-08-01T00:32:06;6.68;;;4.18;;
6823;SDS011;58633;49.470;11.004;2023-08-01T00:34:31;8.98;;;4.40;;
6823;SDS011;58633;49.470;11.004;2023-08-01T00:36:57;6.80;;;3.92;;
6823;SDS011;58633;49.470;11.004;2023-08-01T00:39:23;5.68;;;3.80;;
6823;SDS011;58633;49.470;11.004;2023-08-01T00:41:48;5.53;;;3.95;;
6823;SDS011;58633;49.470;11.004;2023-08-01T00:44:14;4.45;;;3.47;;
6823;SDS011;58633;49.470;11.004;2023-08-01T00:46:39;6.20;;;3.88;;
6823;SDS011;58633;49.470;11.004;2023-08-01T00:49:05;5.20;;;4.03;;
6823;SDS011;58633;49.470;11.004;2023-08-01T00:51:33;7.80;;;4.43;;
6823;SDS011;58633;49.470;11.004;2023-08-01T00:53:59;6.25;;;4.50;;
6823;SDS011;58633;49.470;11.004;2023-08-01T00:56:25;6.20;;;4.10;;
6823;SDS011;58633;49.470;11.004;2023-08-01T00:58:51;7.93;;;3.95;;
6823;SDS011;58633;49.470;11.004;2023-08-01T01:01:17;7.10;;;3.97;;
6823;SDS011;58633;49.470;11.004;2023-08-01T01:03:43;6.72;;;3.80;;
6823;SDS011;58633;49.470;11.004;2023-08-01T01:06:12;5.25;;;3.92;;
6823;SDS011;58633;49.470;11.004;2023-08-01T01:08:58;6.78;;;3.88;;
6823;SDS011;58633;49.470;11.004;2023-08-01T01:11:23;5.55;;;4.20;;
6823;SDS011;58633;49.470;11.004;2023-08-01T01:13:49;6.45;;;3.90;;
6823;SDS011;58633;49.470;11.004;2023-08-01T01:16:18;7.38;;;4.60;;
6823;SDS011;58633;49.470;11.004;2023-08-01T01:18:44;4.85;;;3.90;;
6823;SDS011;58633;49.470;11.004;2023-08-01T01:21:09;6.15;;;3.63;;
6823;SDS011;58633;49.470;11.004;2023-08-01T01:23:35;5.85;;;3.88;;
6823;SDS011;58633;49.470;11.004;2023-08-01T01:26:02;6.10;;;4.30;;
6823;SDS011;58633;49.470;11.004;2023-08-01T01:28:28;6.70;;;3.70;;
6823;SDS011;58633;49.470;11.004;2023-08-01T01:30:55;4.93;;;4.00;;
6823;SDS011;58633;49.470;11.004;2023-08-01T01:33:22;5.43;;;3.88;;
6823;SDS011;58633;49.470;11.004;2023-08-01T01:35:48;6.03;;;3.85;;
6823;SDS011;58633;49.470;11.004;2023-08-01T01:38:13;6.97;;;4.25;;
6823;SDS011;58633;49.470;11.004;2023-08-01T01:40:40;9.23;;;4.15;;
6823;SDS011;58633;49.470;11.004;2023-08-01T01:43:05;7.90;;;3.92;;
6823;SDS011;58633;49.470;11.004;2023-08-01T01:45:31;7.53;;;3.88;;
6823;SDS011;58633;49.470;11.004;2023-08-01T01:47:56;5.85;;;3.97;;
6823;SDS011;58633;49.470;11.004;2023-08-01T01:50:22;5.80;;;3.40;;
6823;SDS011;58633;49.470;11.004;2023-08-01T01:52:47;4.25;;;3.47;;
6823;SDS011;58633;49.470;11.004;2023-08-01T01:55:13;5.28;;;3.53;;
6823;SDS011;58633;49.470;11.004;2023-08-01T01:57:39;3.28;;;2.95;;
6823;SDS011;58633;49.470;11.004;2023-08-01T02:00:05;6.43;;;3.35;;
6823;SDS011;58633;49.470;11.004;2023-08-01T02:02:35;6.20;;;3.05;;
6823;SDS011;58633;49.470;11.004;2023-08-01T02:05:00;6.13;;;3.50;;
6823;SDS011;58633;49.470;11.004;2023-08-01T02:07:26;8.63;;;3.35;;
6823;SDS011;58633;49.470;11.004;2023-08-01T02:09:51;6.75;;;3.40;;
6823;SDS011;58633;49.470;11.004;2023-08-01T02:12:17;5.43;;;3.40;;
6823;SDS011;58633;49.470;11.004;2023-08-01T02:14:43;6.22;;;2.97;;
6823;SDS011;58633;49.470;11.004;2023-08-01T02:17:08;4.35;;;3.20;;
6823;SDS011;58633;49.470;11.004;2023-08-01T02:19:34;4.72;;;3.10;;
6823;SDS011;58633;49.470;11.004;2023-08-01T02:22:00;5.05;;;3.50;;
6823;SDS011;58633;49.470;11.004;2023-08-01T02:24:26;5.22;;;3.80;;
6823;SDS011;58633;49.470;11.004;2023-08-01T02:26:51;6.65;;;3.60;;
6823;SDS011;58633;49.470;11.004;2023-08-01T02:29:17;6.05;;;3.40;;
6823;SDS011;58633;49.470;11.004;2023-08-01T02:31:42;5.35;;;3.17;;
6823;SDS011;58633;49.470;11.004;2023-08-01T02:34:08;5.88;;;3.30;;
6823;SDS011;58633;49.470;11.004;2023-08-01T02:36:34;4.68;;;3.10;;
6823;SDS011;58633;49.470;11.004;2023-08-01T02:38:59;6.25;;;3.15;;
6823;SDS011;58633;49.470;11.004;2023-08-01T02:41:25;3.45;;;2.95;;
6823;SDS011;58633;49.470;11.004;2023-08-01T02:43:50;6.07;;;3.55;;
6823;SDS011;58633;49.470;11.004;2023-08-01T02:46:16;4.60;;;3.38;;
6823;SDS011;58633;49.470;11.004;2023-08-01T02:48:41;4.72;;;3.47;;
6823;SDS011;58633;49.470;11.004;2023-08-01T02:51:07;6.97;;;3.70;;
6823;SDS011;58633;49.470;11.004;2023-08-01T02:53:34;3.85;;;3.00;;
6823;SDS011;58633;49.470;11.004;2023-08-01T02:56:00;7.07;;;3.13;;
6823;SDS011;58633;49.470;11.004;2023-08-01T02:58:26;4.63;;;3.22;;
6823;SDS011;58633;49.470;11.004;2023-08-01T03:00:52;4.85;;;3.45;;
6823;SDS011;58633;49.470;11.004;2023-08-01T03:03:17;4.45;;;3.05;;
6823;SDS011;58633;49.470;11.004;2023-08-01T03:05:43;5.50;;;3.30;;
6823;SDS011;58633;49.470;11.004;2023-08-01T03:08:08;5.55;;;3.60;;
6823;SDS011;58633;49.470;11.004;2023-08-01T03:10:34;6.47;;;3.78;;
6823;SDS011;58633;49.470;11.004;2023-08-01T03:12:59;6.68;;;3.20;;
6823;SDS011;58633;49.470;11.004;2023-08-01T03:15:25;5.35;;;3.53;;
6823;SDS011;58633;49.470;11.004;2023-08-01T03:17:51;7.90;;;3.83;;
6823;SDS011;58633;49.470;11.004;2023-08-01T03:20:17;5.63;;;3.65;;
6823;SDS011;58633;49.470;11.004;2023-08-01T03:22:43;6.25;;;3.83;;
6823;SDS011;58633;49.470;11.004;2023-08-01T03:25:08;3.95;;;2.90;;
6823;SDS011;58633;49.470;11.004;2023-08-01T03:27:34;5.25;;;3.55;;
6823;SDS011;58633;49.470;11.004;2023-08-01T03:30:00;6.60;;;3.75;;
6823;SDS011;58633;49.470;11.004;2023-08-01T03:32:26;5.85;;;3.42;;
6823;SDS011;58633;49.470;11.004;2023-08-01T03:34:51;5.40;;;3.67;;
6823;SDS011;58633;49.470;11.004;2023-08-01T03:37:17;6.25;;;3.38;;
6823;SDS011;58633;49.470;11.004;2023-08-01T03:39:43;7.20;;;3.63;;
6823;SDS011;58633;49.470;11.004;2023-08-01T03:42:09;4.95;;;3.45;;
6823;SDS011;58633;49.470;11.004;2023-08-01T03:44:34;4.78;;;3.33;;
6823;SDS011;58633;49.470;11.004;2023-08-01T03:47:00;5.70;;;3.42;;
6823;SDS011;58633;49.470;11.004;2023-08-01T03:49:26;9.18;;;3.67;;
6823;SDS011;58633;49.470;11.004;2023-08-01T03:51:51;6.35;;;3.75;;
6823;SDS011;58633;49.470;11.004;2023-08-01T03:54:17;5.53;;;3.58;;
6823;SDS011;58633;49.470;11.004;2023-08-01T03:56:42;7.32;;;3.35;;
6823;SDS011;58633;49.470;11.004;2023-08-01T03:59:13;5.70;;;4.40;;
6823;SDS011;58633;49.470;11.004;2023-08-01T04:01:39;5.03;;;3.80;;
6823;SDS011;58633;49.470;11.004;2023-08-01T04:04:05;4.97;;;3.33;;
6823;SDS011;58633;49.470;11.004;2023-08-01T04:06:30;5.47;;;3.55;;
6823;SDS011;58633;49.470;11.004;2023-08-01T04:08:56;5.85;;;3.45;;
6823;SDS011;58633;49.470;11.004;2023-08-01T04:11:21;7.55;;;3.67;;
6823;SDS011;58633;49.470;11.004;2023-08-01T04:13:47;4.18;;;2.97;;
6823;SDS011;58633;49.470;11.004;2023-08-01T04:16:13;7.20;;;3.60;;
6823;SDS011;58633;49.470;11.004;2023-08-01T04:18:39;4.35;;;3.17;;
6823;SDS011;58633;49.470;11.004;2023-08-01T04:21:04;4.60;;;3.50;;
6823;SDS011;58633;49.470;11.004;2023-08-01T04:23:31;5.43;;;3.45;;
6823;SDS011;58633;49.470;11.004;2023-08-01T04:25:57;4.65;;;3.55;;
6823;SDS011;58633;49.470;11.004;2023-08-01T04:28:23;5.43;;;3.13;;
6823;SDS011;58633;49.470;11.004;2023-08-01T04:30:49;4.15;;;2.92;;
6823;SDS011;58633;49.470;11.004;2023-08-01T04:33:15;4.50;;;3.50;;
6823;SDS011;58633;49.470;11.004;2023-08-01T04:35:41;5.00;;;3.22;;
6823;SDS011;58633;49.470;11.004;2023-08-01T04:38:06;4.95;;;3.20;;
6823;SDS011;58633;49.470;11.004;2023-08-01T04:40:33;3.90;;;3.33;;
6823;SDS011;58633;49.470;11.004;2023-08-01T04:43:00;5.25;;;3.22;;
6823;SDS011;58633;49.470;11.004;2023-08-01T04:45:26;7.50;;;3.53;;
6823;SDS011;58633;49.470;11.004;2023-08-01T04:47:51;5.65;;;3.55;;
6823;SDS011;58633;49.470;11.004;2023-08-01T04:50:17;6.63;;;3.60;;
6823;SDS011;58633;49.470;11.004;2023-08-01T04:52:43;5.40;;;3.40;;
6823;SDS011;58633;49.470;11.004;2023-08-01T04:55:08;5.57;;;3.53;;
6823;SDS011;58633;49.470;11.004;2023-08-01T04:57:34;4.38;;;3.45;;
6823;SDS011;58633;49.470;11.004;2023-08-01T04:59:59;6.53;;;4.00;;
6823;SDS011;58633;49.470;11.004;2023-08-01T05:02:25;5.30;;;3.40;;
6823;SDS011;58633;49.470;11.004;2023-08-01T05:04:51;5.30;;;3.67;;
6823;SDS011;58633;49.470;11.004;2023-08-01T05:07:16;6.03;;;3.80;;
6823;SDS011;58633;49.470;11.004;2023-08-01T05:09:42;7.20;;;3.78;;
6823;SDS011;58633;49.470;11.004;2023-08-01T05:12:07;6.72;;;3.55;;
6823;SDS011;58633;49.470;11.004;2023-08-01T05:14:34;5.40;;;3.80;;
6823;SDS011;58633;49.470;11.004;2023-08-01T05:16:59;5.70;;;3.55;;
6823;SDS011;58633;49.470;11.004;2023-08-01T05:19:25;5.07;;;3.45;;
6823;SDS011;58633;49.470;11.004;2023-08-01T05:21:50;4.32;;;3.40;;
6823;SDS011;58633;49.470;11.004;2023-08-01T05:24:16;5.80;;;3.70;;
6823;SDS011;58633;49.470;11.004;2023-08-01T05:26:42;5.57;;;3.70;;
6823;SDS011;58633;49.470;11.004;2023-08-01T05:29:07;8.25;;;4.88;;
6823;SDS011;58633;49.470;11.004;2023-08-01T05:31:33;5.65;;;3.42;;
6823;SDS011;58633;49.470;11.004;2023-08-01T05:33:58;4.82;;;3.30;;
6823;SDS011;58633;49.470;11.004;2023-08-01T05:36:24;5.15;;;3.10;;
6823;SDS011;58633;49.470;11.004;2023-08-01T05:38:50;5.20;;;3.60;;
6823;SDS011;58633;49.470;11.004;2023-08-01T05:41:15;6.55;;;3.33;;
6823;SDS011;58633;49.470;11.004;2023-08-01T05:43:41;5.97;;;3.83;;
6823;SDS011;58633;49.470;11.004;2023-08-01T05:46:07;6.70;;;3.60;;
6823;SDS011;58633;49.470;11.004;2023-08-01T05:48:32;4.68;;;3.40;;
6823;SDS011;58633;49.470;11.004;2023-08-01T05:50:58;4.55;;;3.13;;
6823;SDS011;58633;49.470;11.004;2023-08-01T05:53:23;6.68;;;3.95;;
6823;SDS011;58633;49.470;11.004;2023-08-01T05:55:49;4.85;;;3.30;;
6823;SDS011;58633;49.470;11.004;2023-08-01T05:58:15;11.23;;;3.80;;
6823;SDS011;58633;49.470;11.004;2023-08-01T06:00:41;5.72;;;3.40;;
6823;SDS011;58633;49.470;11.004;2023-08-01T06:03:06;4.90;;;3.63;;
6823;SDS011;58633;49.470;11.004;2023-08-01T06:05:32;5.43;;;3.80;;
6823;SDS011;58633;49.470;11.004;2023-08-01T06:07:57;4.72;;;3.65;;
6823;SDS011;58633;49.470;11.004;2023-08-01T06:10:23;4.50;;;3.50;;
6823;SDS011;58633;49.470;11.004;2023-08-01T06:12:49;5.97;;;3.80;;
6823;SDS011;58633;49.470;11.004;2023-08-01T06:15:14;7.22;;;4.10;;
6823;SDS011;58633;49.470;11.004;2023-08-01T06:17:40;5.10;;;3.80;;
6823;SDS011;58633;49.470;11.004;2023-08-01T06:20:06;6.78;;;3.40;;
6823;SDS011;58633;49.470;11.004;2023-08-01T06:22:32;7.40;;;3.85;;
6823;SDS011;58633;49.470;11.004;2023-08-01T06:24:58;6.43;;;4.22;;
6823;SDS011;58633;49.470;11.004;2023-08-01T06:27:23;8.77;;;4.05;;
6823;SDS011;58633;49.470;11.004;2023-08-01T06:29:49;7.47;;;4.82;;
6823;SDS011;58633;49.470;11.004;2023-08-01T06:32:15;9.55;;;3.90;;
6823;SDS011;58633;49.470;11.004;2023-08-01T06:34:40;7.47;;;3.65;;
6823;SDS011;58633;49.470;11.004;2023-08-01T06:37:06;4.78;;;3.60;;
6823;SDS011;58633;49.470;11.004;2023-08-01T06:39:31;6.85;;;3.95;;
6823;SDS011;58633;49.470;11.004;2023-08-01T06:41:57;9.50;;;4.53;;
6823;SDS011;58633;49.470;11.004;2023-08-01T06:44:22;7.97;;;3.75;;
6823;SDS011;58633;49.470;11.004;2023-08-01T06:46:48;5.05;;;4.00;;
6823;SDS011;58633;49.470;11.004;2023-08-01T06:49:13;7.13;;;4.30;;
6823;SDS011;58633;49.470;11.004;2023-08-01T06:51:39;6.68;;;3.70;;
6823;SDS011;58633;49.470;11.004;2023-08-01T06:54:06;5.40;;;3.88;;
6823;SDS011;58633;49.470;11.004;2023-08-01T06:56:32;9.75;;;3.85;;
6823;SDS011;58633;49.470;11.004;2023-08-01T06:58:58;8.65;;;4.00;;
6823;SDS011;58633;49.470;11.004;2023-08-01T07:01:23;6.80;;;4.32;;
6823;SDS011;58633;49.470;11.004;2023-08-01T07:03:49;7.13;;;4.10;;
6823;SDS011;58633;49.470;11.004;2023-08-01T07:06:18;9.23;;;4.35;;
6823;SDS011;58633;49.470;11.004;2023-08-01T07:08:43;6.38;;;3.80;;
6823;SDS011;58633;49.470;11.004;2023-08-01T07:11:09;6.53;;;4.13;;
6823;SDS011;58633;49.470;11.004;2023-08-01T07:13:34;6.25;;;4.10;;
6823;SDS011;58633;49.470;11.004;2023-08-01T07:16:00;6.18;;;3.92;;
6823;SDS011;58633;49.470;11.004;2023-08-01T07:18:25;6.88;;;4.00;;
6823;SDS011;58633;49.470;11.004;2023-08-01T07:21:00;6.70;;;3.60;;
6823;SDS011;58633;49.470;11.004;2023-08-01T07:23:26;5.57;;;3.80;;
6823;SDS011;58633;49.470;11.004;2023-08-01T07:25:52;5.72;;;4.20;;
6823;SDS011;58633;49.470;11.004;2023-08-01T07:28:18;6.55;;;3.90;;
6823;SDS011;58633;49.470;11.004;2023-08-01T07:30:43;9.57;;;4.22;;
6823;SDS011;58633;49.470;11.004;2023-08-01T07:33:09;5.38;;;3.80;;
6823;SDS011;58633;49.470;11.004;2023-08-01T07:35:34;10.63;;;4.03;;
6823;SDS011;58633;49.470;11.004;2023-08-01T07:38:01;10.13;;;4.43;;
6823;SDS011;58633;49.470;11.004;2023-08-01T07:40:26;6.88;;;4.13;;
6823;SDS011;58633;49.470;11.004;2023-08-01T07:42:52;7.70;;;4.15;;
6823;SDS011;58633;49.470;11.004;2023-08-01T07:45:18;7.35;;;4.22;;
6823;SDS011;58633;49.470;11.004;2023-08-01T07:47:44;6.45;;;3.97;;
6823;SDS011;58633;49.470;11.004;2023-08-01T07:50:10;7.90;;;4.35;;
6823;SDS011;58633;49.470;11.004;2023-08-01T07:52:36;7.13;;;4.47;;
6823;SDS011;58633;49.470;11.004;2023-08-01T07:55:02;9.40;;;4.30;;
6823;SDS011;58633;49.470;11.004;2023-08-01T07:57:27;7.25;;;4.05;;
6823;SDS011;58633;49.470;11.004;2023-08-01T07:59:53;7.18;;;4.68;;
6823;SDS011;58633;49.470;11.004;2023-08-01T08:02:19;8.75;;;4.43;;
6823;SDS011;58633;49.470;11.004;2023-08-01T08:04:44;5.82;;;4.43;;
6823;SDS011;58633;49.470;11.004;2023-08-01T08:07:10;8.82;;;4.88;;
6823;SDS011;58633;49.470;11.004;2023-08-01T08:09:36;8.50;;;4.68;;
6823;SDS011;58633;49.470;11.004;2023-08-01T08:12:02;7.30;;;4.45;;
6823;SDS011;58633;49.470;11.004;2023-08-01T08:14:28;8.05;;;4.70;;
6823;SDS011;58633;49.470;11.004;2023-08-01T08:16:55;6.78;;;4.95;;
6823;SDS011;58633;49.470;11.004;2023-08-01T08:19:20;6.70;;;4.18;;
6823;SDS011;58633;49.470;11.004;2023-08-01T08:21:49;5.55;;;3.85;;
6823;SDS011;58633;49.470;11.004;2023-08-01T08:24:14;9.52;;;3.65;;
6823;SDS011;58633;49.470;11.004;2023-08-01T08:26:40;5.90;;;3.78;;
6823;SDS011;58633;49.470;11.004;2023-08-01T08:29:05;6.85;;;3.60;;
6823;SDS011;58633;49.470;11.004;2023-08-01T08:31:31;6.40;;;3.30;;
6823;SDS011;58633;49.470;11.004;2023-08-01T08:33:57;6.75;;;3.72;;
6823;SDS011;58633;49.470;11.004;2023-08-01T08:36:22;6.05;;;3.20;;
6823;SDS011;58633;49.470;11.004;2023-08-01T08:38:48;4.45;;;3.40;;
6823;SDS011;58633;49.470;11.004;2023-08-01T08:41:16;6.55;;;3.83;;
6823;SDS011;58633;49.470;11.004;2023-08-01T08:43:45;6.45;;;3.63;;
6823;SDS011;58633;49.470;11.004;2023-08-01T08:46:14;4.85;;;3.30;;
6823;SDS011;58633;49.470;11.004;2023-08-01T08:48:41;9.50;;;4.35;;
6823;SDS011;58633;49.470;11.004;2023-08-01T08:51:07;6.35;;;4.03;;
6823;SDS011;58633;49.470;11.004;2023-08-01T08:53:34;9.30;;;3.95;;
6823;SDS011;58633;49.470;11.004;2023-08-01T08:56:00;6.85;;;3.90;;
6823;SDS011;58633;49.470;11.004;2023-08-01T08:58:29;6.43;;;3.78;;
6823;SDS011;58633;49.470;11.004;2023-08-01T09:00:56;4.90;;;3.83;;
6823;SDS011;58633;49.470;11.004;2023-08-01T09:03:22;7.90;;;4.03;;
6823;SDS011;58633;49.470;11.004;2023-08-01T09:05:49;5.95;;;4.28;;
6823;SDS011;58633;49.470;11.004;2023-08-01T09:08:18;7.38;;;4.47;;
6823;SDS011;58633;49.470;11.004;2023-08-01T09:10:45;7.22;;;3.92;;
6823;SDS011;58633;49.470;11.004;2023-08-01T09:13:11;5.38;;;4.10;;
6823;SDS011;58633;49.470;11.004;2023-08-01T09:15:37;5.22;;;3.95;;
6823;SDS011;58633;49.470;11.004;2023-08-01T09:18:07;5.00;;;3.85;;
6823;SDS011;58633;49.470;11.004;2023-08-01T09:20:42;8.02;;;3.75;;
6823;SDS011;58633;49.470;11.004;2023-08-01T09:23:09;9.30;;;4.18;;
6823;SDS011;58633;49.470;11.004;2023-08-01T09:25:36;6.70;;;4.18;;
6823;SDS011;58633;49.470;11.004;2023-08-01T09:28:02;6.65;;;4.20;;
6823;SDS011;58633;49.470;11.004;2023-08-01T09:30:27;5.55;;;3.83;;
6823;SDS011;58633;49.470;11.004;2023-08-01T09:32:56;5.65;;;3.65;;
6823;SDS011;58633;49.470;11.004;2023-08-01T09:35:22;7.55;;;4.40;;
6823;SDS011;58633;49.470;11.004;2023-08-01T09:37:48;6.93;;;4.70;;
6823;SDS011;58633;49.470;11.004;2023-08-01T09:40:14;5.53;;;3.45;;
6823;SDS011;58633;49.470;11.004;2023-08-01T09:42:40;9.38;;;3.65;;
6823;SDS011;58633;49.470;11.004;2023-08-01T09:45:16;5.32;;;3.60;;
6823;SDS011;58633;49.470;11.004;2023-08-01T09:47:43;7.47;;;3.85;;
6823;SDS011;58633;49.470;11.004;2023-08-01T09:50:10;5.95;;;3.78;;
6823;SDS011;58633;49.470;11.004;2023-08-01T09:52:38;8.93;;;4.20;;
6823;SDS011;58633;49.470;11.004;2023-08-01T09:55:04;6.22;;;3.88;;
6823;SDS011;58633;49.470;11.004;2023-08-01T09:57:30;5.93;;;3.85;;
6823;SDS011;58633;49.470;11.004;2023-08-01T09:59:57;5.30;;;3.58;;
6823;SDS011;58633;49.470;11.004;2023-08-01T10:02:24;6.68;;;3.97;;
6823;SDS011;58633;49.470;11.004;2023-08-01T10:04:52;9.23;;;4.20;;
6823;SDS011;58633;49.470;11.004;2023-08-01T10:07:20;5.35;;;3.65;;
6823;SDS011;58633;49.470;11.004;2023-08-01T10:09:51;6.57;;;3.45;;
6823;SDS011;58633;49.470;11.004;2023-08-01T10:12:22;4.88;;;3.72;;
6823;SDS011;58633;49.470;11.004;2023-08-01T10:14:50;4.93;;;3.20;;
6823;SDS011;58633;49.470;11.004;2023-08-01T10:17:17;5.03;;;3.63;;
6823;SDS011;58633;49.470;11.004;2023-08-01T10:19:44;4.68;;;3.47;;
6823;SDS011;58633;49.470;11.004;2023-08-01T10:22:10;3.72;;;3.33;;
6823;SDS011;58633;49.470;11.004;2023-08-01T10:24:36;5.40;;;2.97;;
6823;SDS011;58633;49.470;11.004;2023-08-01T10:27:18;4.38;;;2.97;;
6823;SDS011;58633;49.470;11.004;2023-08-01T10:29:45;4.53;;;3.25;;
6823;SDS011;58633;49.470;11.004;2023-08-01T10:32:27;6.40;;;3.00;;
6823;SDS011;58633;49.470;11.004;2023-08-01T10:34:59;4.47;;;2.95;;
6823;SDS011;58633;49.470;11.004;2023-08-01T10:37:25;2.95;;;2.60;;
6823;SDS011;58633;49.470;11.004;2023-08-01T10:39:58;4.10;;;2.95;;
6823;SDS011;58633;49.470;11.004;2023-08-01T10:42:24;3.85;;;2.80;;
6823;SDS011;58633;49.470;11.004;2023-08-01T10:44:50;6.60;;;2.80;;
6823;SDS011;58633;49.470;11.004;2023-08-01T10:47:24;2.85;;;2.60;;
6823;SDS011;58633;49.470;11.004;2023-08-01T10:49:54;3.30;;;2.58;;
6823;SDS011;58633;49.470;11.004;2023-08-01T10:52:20;3.58;;;2.13;;
6823;SDS011;58633;49.470;11.004;2023-08-01T10:55:01;3.05;;;2.00;;
6823;SDS011;58633;49.470;11.004;2023-08-01T10:57:28;3.63;;;1.95;;
6823;SDS011;58633;49.470;11.004;2023-08-01T10:59:56;3.33;;;2.10;;
6823;SDS011;58633;49.470;11.004;2023-08-01T11:02:23;2.92;;;2.10;;
6823;SDS011;58633;49.470;11.004;2023-08-01T11:04:56;2.30;;;1.80;;
6823;SDS011;58633;49.470;11.004;2023-08-01T11:07:22;2.10;;;1.90;;
6823;SDS011;58633;49.470;11.004;2023-08-01T11:09:48;2.63;;;1.90;;
6823;SDS011;58633;49.470;11.004;2023-08-01T11:12:13;3.00;;;1.90;;
6823;SDS011;58633;49.470;11.004;2023-08-01T11:14:39;2.38;;;2.13;;
6823;SDS011;58633;49.470;11.004;2023-08-01T11:17:04;3.42;;;2.22;;
6823;SDS011;58633;49.470;11.004;2023-08-01T11:19:30;2.55;;;1.63;;
6823;SDS011;58633;49.470;11.004;2023-08-01T11:21:56;2.38;;;2.17;;
6823;SDS011;58633;49.470;11.004;2023-08-01T11:24:22;2.10;;;1.90;;
6823;SDS011;58633;49.470;11.004;2023-08-01T11:26:50;4.43;;;2.17;;
6823;SDS011;58633;49.470;11.004;2023-08-01T11:29:17;3.40;;;1.83;;
6823;SDS011;58633;49.470;11.004;2023-08-01T11:31:53;2.33;;;2.13;;
6823;SDS011;58633;49.470;11.004;2023-08-01T11:34:21;2.33;;;1.80;;
6823;SDS011;58633;49.470;11.004;2023-08-01T11:36:47;2.05;;;1.70;;
6823;SDS011;58633;49.470;11.004;2023-08-01T11:39:14;2.10;;;1.95;;
6823;SDS011;58633;49.470;11.004;2023-08-01T11:41:40;2.25;;;1.50;;
6823;SDS011;58633;49.470;11.004;2023-08-01T11:44:07;1.70;;;1.60;;
6823;SDS011;58633;49.470;11.004;2023-08-01T11:46:34;1.85;;;1.75;;
6823;SDS011;58633;49.470;11.004;2023-08-01T11:49:00;2.00;;;1.40;;
6823;SDS011;58633;49.470;11.004;2023-08-01T11:51:27;1.50;;;1.40;;
6823;SDS011;58633;49.470;11.004;2023-08-01T11:54:03;1.00;;;0.90;;
6823;SDS011;58633;49.470;11.004;2023-08-01T11:56:29;1.20;;;1.02;;
6823;SDS011;58633;49.470;11.004;2023-08-01T11:58:55;0.75;;;0.70;;
6823;SDS011;58633;49.470;11.004;2023-08-01T12:01:21;0.90;;;0.90;;
6823;SDS011;58633;49.470;11.004;2023-08-01T12:03:48;1.42;;;0.90;;
6823;SDS011;58633;49.470;11.004;2023-08-01T12:06:15;1.30;;;0.73;;
6823;SDS011;58633;49.470;11.004;2023-08-01T12:08:42;0.90;;;0.90;;
6823;SDS011;58633;49.470;11.004;2023-08-01T12:13:47;2.05;;;1.20;;
6823;SDS011;58633;49.470;11.004;2023-08-01T12:16:25;1.27;;;0.80;;
6823;SDS011;58633;49.470;11.004;2023-08-01T12:18:50;1.52;;;1.00;;
6823;SDS011;58633;49.470;11.004;2023-08-01T12:21:16;1.65;;;1.10;;
6823;SDS011;58633;49.470;11.004;2023-08-01T12:23:41;0.70;;;0.70;;
6823;SDS011;58633;49.470;11.004;2023-08-01T12:26:07;1.42;;;0.90;;
6823;SDS011;58633;49.470;11.004;2023-08-01T12:28:33;1.00;;;0.88;;
6823;SDS011;58633;49.470;11.004;2023-08-01T12:30:59;1.23;;;1.00;;
6823;SDS011;58633;49.470;11.004;2023-08-01T12:33:25;1.27;;;0.82;;
6823;SDS011;58633;49.470;11.004;2023-08-01T12:35:50;1.77;;;0.90;;
6823;SDS011;58633;49.470;11.004;2023-08-01T12:38:16;0.80;;;0.80;;
6823;SDS011;58633;49.470;11.004;2023-08-01T12:40:41;0.80;;;0.80;;
6823;SDS011;58633;49.470;11.004;2023-08-01T12:43:06;0.73;;;0.73;;
6823;SDS011;58633;49.470;11.004;2023-08-01T12:45:32;0.70;;;0.70;;
6823;SDS011;58633;49.470;11.004;2023-08-01T12:47:58;0.73;;;0.73;;
6823;SDS011;58633;49.470;11.004;2023-08-01T12:50:23;1.33;;;0.63;;
6823;SDS011;58633;49.470;11.004;2023-08-01T12:52:49;0.80;;;0.80;;
6823;SDS011;58633;49.470;11.004;2023-08-01T12:55:14;1.00;;;0.77;;
6823;SDS011;58633;49.470;11.004;2023-08-01T12:57:40;1.27;;;0.80;;
6823;SDS011;58633;49.470;11.004;2023-08-01T13:00:06;1.10;;;0.85;;
6823;SDS011;58633;49.470;11.004;2023-08-01T13:02:35;1.40;;;0.80;;
6823;SDS011;58633;49.470;11.004;2023-08-01T13:05:01;1.02;;;0.80;;
6823;SDS011;58633;49.470;11.004;2023-08-01T13:07:27;1.10;;;1.00;;
6823;SDS011;58633;49.470;11.004;2023-08-01T13:09:53;2.10;;;0.73;;
6823;SDS011;58633;49.470;11.004;2023-08-01T13:12:18;0.80;;;0.60;;
6823;SDS011;58633;49.470;11.004;2023-08-01T13:14:44;1.50;;;0.90;;
6823;SDS011;58633;49.470;11.004;2023-08-01T13:17:09;0.60;;;0.60;;
6823;SDS011;58633;49.470;11.004;2023-08-01T13:19:35;0.80;;;0.80;;
6823;SDS011;58633;49.470;11.004;2023-08-01T13:22:00;0.75;;;0.75;;
6823;SDS011;58633;49.470;11.004;2023-08-01T13:24:26;0.73;;;0.73;;
6823;SDS011;58633;49.470;11.004;2023-08-01T13:26:52;0.80;;;0.80;;
6823;SDS011;58633;49.470;11.004;2023-08-01T13:29:17;0.93;;;0.80;;
6823;SDS011;58633;49.470;11.004;2023-08-01T13:31:43;0.80;;;0.80;;
6823;SDS011;58633;49.470;11.004;2023-08-01T13:34:08;0.75;;;0.75;;
6823;SDS011;58633;49.470;11.004;2023-08-01T13:36:34;1.40;;;0.90;;
6823;SDS011;58633;49.470;11.004;2023-08-01T13:38:59;0.85;;;0.80;;
6823;SDS011;58633;49.470;11.004;2023-08-01T13:41:25;0.80;;;0.80;;
6823;SDS011;58633;49.470;11.004;2023-08-01T13:43:50;0.68;;;0.68;;
6823;SDS011;58633;49.470;11.004;2023-08-01T13:46:17;2.67;;;0.88;;
6823;SDS011;58633;49.470;11.004;2023-08-01T13:48:44;0.98;;;0.80;;
6823;SDS011;58633;49.470;11.004;2023-08-01T13:51:11;0.70;;;0.70;;
6823;SDS011;58633;49.470;11.004;2023-08-01T13:53:37;0.80;;;0.70;;
6823;SDS011;58633;49.470;11.004;2023-08-01T13:56:06;1.63;;;0.70;;
6823;SDS011;58633;49.470;11.004;2023-08-01T13:58:32;1.38;;;0.90;;
6823;SDS011;58633;49.470;11.004;2023-08-01T14:01:01;0.93;;;0.93;;
6823;SDS011;58633;49.470;11.004;2023-08-01T14:03:32;1.02;;;0.82;;
6823;SDS011;58633;49.470;11.004;2023-08-01T14:06:16;1.85;;;1.00;;
6823;SDS011;58633;49.470;11.004;2023-08-01T14:08:41;0.95;;;0.88;;
6823;SDS011;58633;49.470;11.004;2023-08-01T14:11:08;1.08;;;0.95;;
6823;SDS011;58633;49.470;11.004;2023-08-01T14:13:35;1.10;;;0.95;;
6823;SDS011;58633;49.470;11.004;2023-08-01T14:16:01;1.35;;;0.85;;
6823;SDS011;58633;49.470;11.004;2023-08-01T14:18:28;0.90;;;0.90;;
6823;SDS011;58633;49.470;11.004;2023-08-01T14:20:54;1.98;;;1.17;;
6823;SDS011;58633;49.470;11.004;2023-08-01T14:23:19;0.80;;;0.80;;
6823;SDS011;58633;49.470;11.004;2023-08-01T14:25:46;1.08;;;0.90;;
6823;SDS011;58633;49.470;11.004;2023-08-01T14:28:11;1.58;;;0.90;;
6823;SDS011;58633;49.470;11.004;2023-08-01T14:30:37;0.82;;;0.82;;
6823;SDS011;58633;49.470;11.004;2023-08-01T14:33:04;0.85;;;0.70;;
6823;SDS011;58633;49.470;11.004;2023-08-01T14:35:33;2.35;;;0.95;;
6823;SDS011;58633;49.470;11.004;2023-08-01T14:37:59;1.25;;;0.95;;
6823;SDS011;58633;49.470;11.004;2023-08-01T14:40:25;2.83;;;1.00;;
6823;SDS011;58633;49.470;11.004;2023-08-01T14:42:51;0.85;;;0.80;;
6823;SDS011;58633;49.470;11.004;2023-08-01T14:45:17;1.45;;;0.80;;